createdAt,value
2023-02-13T00:01:45.749Z,100.00
2023-02-13T00:07:08.079Z,100.00
2023-02-13T00:12:31.000Z,100.00
2023-02-13T00:17:53.584Z,100.00
2023-02-13T00:23:17.577Z,100.00
2023-02-13T00:28:41.097Z,100.00
2023-02-13T00:34:03.686Z,100.00
2023-02-13T00:39:26.034Z,100.00
2023-02-13T00:44:48.325Z,100.00
2023-02-13T00:50:10.706Z,100.00
2023-02-13T00:55:33.871Z,100.00
2023-02-13T01:00:57.997Z,100.00
2023-02-13T01:06:20.703Z,100.00
2023-02-13T01:11:42.933Z,100.00
2023-02-13T01:17:05.367Z,100.00
2023-02-13T01:22:28.341Z,100.00
2023-02-13T01:27:51.002Z,100.00
2023-02-13T01:33:13.223Z,100.00
2023-02-13T01:38:35.909Z,100.00
2023-02-13T01:44:07.879Z,100.00
2023-02-13T01:49:38.749Z,100.00
2023-02-13T01:55:01.914Z,100.00
2023-02-13T02:00:27.548Z,100.00
2023-02-13T02:05:51.899Z,100.00
2023-02-13T02:11:18.798Z,100.00
2023-02-13T02:16:41.914Z,100.00
2023-02-13T02:22:17.997Z,100.00
2023-02-13T02:27:57.286Z,100.00
2023-02-13T02:33:50.300Z,100.00
2023-02-13T02:39:28.696Z,100.00
2023-02-13T02:45:13.907Z,100.00
2023-02-13T02:50:48.545Z,100.00
2023-02-13T02:56:34.777Z,100.00
2023-02-13T03:02:20.336Z,100.00
2023-02-13T03:07:45.874Z,100.00
2023-02-13T03:13:23.523Z,100.00
2023-02-13T03:19:08.665Z,100.00
2023-02-13T03:24:42.642Z,98.89
2023-02-13T03:30:17.177Z,97.90
2023-02-13T03:36:55.747Z,97.49
2023-02-13T03:42:24.868Z,97.34
2023-02-13T03:47:50.173Z,97.35
2023-02-13T03:53:18.080Z,97.68
2023-02-13T03:59:09.829Z,97.77
2023-02-13T04:04:55.921Z,97.48
2023-02-13T04:10:23.707Z,96.94
2023-02-13T04:16:10.618Z,96.64
2023-02-13T04:21:34.749Z,96.65
2023-02-13T04:27:00.449Z,96.52
2023-02-13T04:32:25.438Z,96.67
2023-02-13T04:37:49.381Z,96.84
2023-02-13T04:43:13.930Z,96.91
2023-02-13T04:48:38.891Z,97.26
2023-02-13T04:54:02.120Z,97.36
2023-02-13T04:59:26.832Z,97.58
2023-02-13T05:04:51.267Z,97.81
2023-02-13T05:10:16.676Z,97.93
2023-02-13T05:15:41.437Z,97.95
2023-02-13T05:21:23.836Z,97.85
2023-02-13T05:26:48.571Z,97.58
2023-02-13T05:32:13.918Z,97.35
2023-02-13T05:37:38.029Z,97.08
2023-02-13T05:43:02.412Z,96.88
2023-02-13T05:48:27.136Z,96.65
2023-02-13T05:53:50.530Z,96.54
2023-02-13T05:59:13.194Z,96.53
2023-02-13T06:04:37.203Z,96.38
2023-02-13T06:10:03.129Z,96.06
2023-02-13T06:15:26.941Z,96.05
2023-02-13T06:20:51.786Z,95.95
2023-02-13T06:26:20.220Z,95.69
2023-02-13T06:31:44.948Z,95.35
2023-02-13T06:37:09.634Z,95.14
2023-02-13T06:42:33.335Z,95.16
2023-02-13T06:47:58.687Z,95.19
2023-02-13T06:53:22.833Z,94.59
2023-02-13T06:58:46.596Z,93.92
2023-02-13T07:04:08.886Z,93.12
2023-02-13T07:09:31.237Z,92.67
2023-02-13T07:14:54.249Z,92.42
2023-02-13T07:20:17.876Z,91.89
2023-02-13T07:25:40.847Z,91.43
2023-02-13T07:31:03.617Z,91.08
2023-02-13T07:36:26.745Z,90.54
2023-02-13T07:41:49.053Z,89.86
2023-02-13T07:47:11.475Z,89.17
2023-02-13T07:52:33.869Z,88.19
2023-02-13T07:57:56.097Z,87.16
2023-02-13T08:03:18.880Z,86.46
2023-02-13T08:08:42.173Z,85.74
2023-02-13T08:14:04.464Z,85.02
2023-02-13T08:19:26.685Z,84.53
2023-02-13T08:24:49.018Z,84.20
2023-02-13T08:30:13.216Z,83.83
2023-02-13T08:35:36.111Z,83.33
2023-02-13T08:40:59.162Z,82.85
2023-02-13T08:46:22.639Z,82.61
2023-02-13T08:51:45.013Z,82.16
2023-02-13T08:57:09.420Z,81.64
2023-02-13T09:02:32.198Z,81.17
2023-02-13T09:07:54.452Z,80.90
2023-02-13T09:13:17.769Z,80.63
2023-02-13T09:18:41.200Z,80.37
2023-02-13T09:24:03.697Z,80.18
2023-02-13T09:29:25.898Z,79.99
2023-02-13T09:34:48.146Z,79.82
2023-02-13T09:40:10.465Z,79.71
2023-02-13T09:45:34.661Z,79.64
2023-02-13T09:50:58.089Z,79.43
2023-02-13T09:56:37.509Z,79.19
2023-02-13T10:02:02.768Z,78.95
2023-02-13T10:07:38.928Z,78.79
2023-02-13T10:13:32.616Z,78.63
2023-02-13T10:19:06.998Z,78.42
2023-02-13T10:24:34.759Z,78.20
2023-02-13T10:30:19.783Z,78.13
2023-02-13T10:35:56.758Z,77.56
2023-02-13T10:41:32.431Z,77.82
2023-02-13T10:47:22.122Z,77.51
2023-02-13T10:53:00.807Z,77.23
2023-02-13T10:58:49.066Z,76.95
2023-02-13T11:04:16.295Z,76.51
2023-02-13T11:09:40.999Z,75.79
2023-02-13T11:20:50.669Z,75.62
2023-02-13T11:26:23.930Z,74.77
2023-02-13T11:31:58.350Z,74.49
2023-02-13T11:37:36.989Z,74.15
2023-02-13T11:43:02.420Z,73.95
2023-02-13T11:48:30.643Z,73.87
2023-02-13T11:53:59.210Z,73.84
2023-02-13T11:59:22.988Z,73.67
2023-02-13T12:04:45.208Z,73.53
2023-02-13T12:10:24.971Z,73.32
2023-02-13T12:15:51.092Z,72.94
2023-02-13T12:21:44.945Z,72.75
2023-02-13T12:27:34.404Z,72.83
2023-02-13T12:39:14.800Z,73.62
2023-02-13T12:45:03.392Z,72.87
2023-02-13T12:50:54.703Z,72.85
2023-02-13T12:56:32.390Z,72.92
2023-02-13T13:02:32.567Z,72.85
2023-02-13T13:08:17.480Z,72.86
2023-02-13T13:14:26.208Z,72.58
2023-02-13T13:20:20.371Z,72.41
2023-02-13T13:26:08.448Z,72.40
2023-02-13T13:31:33.381Z,72.47
2023-02-13T13:43:12.738Z,73.13
2023-02-13T13:49:17.272Z,72.51
2023-02-13T13:54:43.824Z,72.78
2023-02-13T14:00:17.427Z,72.83
2023-02-13T14:05:43.476Z,72.91
2023-02-13T14:11:12.146Z,72.11
2023-02-13T14:16:53.117Z,71.24
2023-02-13T14:22:42.053Z,70.61
2023-02-13T14:28:11.545Z,69.87
2023-02-13T14:33:43.074Z,69.12
2023-02-13T14:39:12.624Z,68.84
2023-02-13T14:45:04.787Z,69.25
2023-02-13T14:50:34.566Z,68.49
2023-02-13T14:55:52.783Z,68.66
2023-02-13T15:01:31.736Z,68.81
2023-02-13T15:07:02.911Z,68.82
2023-02-13T15:12:45.050Z,68.56
2023-02-13T15:18:10.611Z,68.46
2023-02-13T15:23:39.612Z,68.49
2023-02-13T15:29:35.222Z,68.50
2023-02-13T15:34:51.766Z,68.59
2023-02-13T15:40:28.916Z,68.79
2023-02-13T15:45:53.816Z,69.09
2023-02-13T15:51:17.085Z,69.21
2023-02-13T15:56:40.514Z,69.46
2023-02-13T16:02:05.765Z,69.73
2023-02-13T16:07:30.802Z,70.29
2023-02-13T16:12:54.958Z,70.59
2023-02-13T16:18:21.698Z,71.24
2023-02-13T16:23:44.625Z,71.77
2023-02-13T16:29:07.642Z,72.03
2023-02-13T16:34:42.685Z,72.18
2023-02-13T16:40:07.175Z,71.97
2023-02-13T16:45:46.124Z,71.66
2023-02-13T16:51:10.404Z,72.15
2023-02-13T16:56:32.886Z,72.71
2023-02-13T17:01:56.097Z,73.31
2023-02-13T17:07:21.238Z,74.05
2023-02-13T17:12:46.464Z,74.76
2023-02-13T17:18:09.118Z,75.33
2023-02-13T17:23:34.740Z,75.93
2023-02-13T17:28:57.131Z,76.59
2023-02-13T17:34:19.476Z,76.90
2023-02-13T17:39:41.676Z,77.12
2023-02-13T17:45:06.292Z,76.91
2023-02-13T17:50:30.881Z,76.86
2023-02-13T17:55:53.656Z,76.83
2023-02-13T18:01:17.065Z,76.98
2023-02-13T18:06:39.317Z,76.85
2023-02-13T18:12:05.588Z,76.77
2023-02-13T18:17:26.770Z,76.54
2023-02-13T18:28:21.922Z,75.94
2023-02-13T18:33:46.402Z,76.28
2023-02-13T18:39:10.058Z,76.42
2023-02-13T18:44:32.394Z,76.68
2023-02-13T18:49:54.620Z,76.74
2023-02-13T18:55:17.546Z,76.82
2023-02-13T19:00:40.063Z,77.03
2023-02-13T19:06:04.065Z,77.50
2023-02-13T19:11:29.647Z,77.98
2023-02-13T19:16:53.819Z,78.46
2023-02-13T19:22:16.693Z,79.05
2023-02-13T19:27:41.793Z,79.76
2023-02-13T19:33:08.152Z,80.12
2023-02-13T19:38:31.882Z,81.01
2023-02-13T19:43:54.745Z,81.80
2023-02-13T19:49:19.215Z,82.85
2023-02-13T19:54:42.189Z,83.59
2023-02-13T20:00:05.466Z,84.32
2023-02-13T20:05:28.617Z,84.88
2023-02-13T20:10:52.989Z,85.42
2023-02-13T20:16:19.583Z,85.89
2023-02-13T20:21:42.324Z,86.27
2023-02-13T20:27:04.832Z,86.80
2023-02-13T20:32:28.243Z,87.36
2023-02-13T20:37:51.651Z,87.91
2023-02-13T20:43:13.918Z,88.40
2023-02-13T20:48:36.889Z,88.79
2023-02-13T20:54:00.663Z,89.25
2023-02-13T20:59:24.538Z,89.78
2023-02-13T21:04:46.915Z,90.42
2023-02-13T21:10:10.569Z,91.00
2023-02-13T21:15:35.522Z,91.52
2023-02-13T21:20:58.255Z,92.24
2023-02-13T21:26:26.620Z,93.17
2023-02-13T21:31:52.486Z,94.15
2023-02-13T21:37:14.802Z,94.87
2023-02-13T21:42:37.103Z,95.45
2023-02-13T21:48:01.059Z,95.99
2023-02-13T21:53:24.842Z,96.60
2023-02-13T21:58:48.683Z,97.17
2023-02-13T22:04:14.075Z,97.77
2023-02-13T22:09:38.216Z,98.49
2023-02-13T22:15:01.743Z,99.23
2023-02-13T22:20:24.786Z,99.84
2023-02-13T22:25:49.637Z,100.00
2023-02-13T22:31:17.127Z,100.00
2023-02-13T22:36:40.874Z,100.00
2023-02-13T22:42:03.221Z,99.53
2023-02-13T22:47:25.440Z,98.64
2023-02-13T22:52:47.664Z,97.85
2023-02-13T22:58:10.921Z,96.95
2023-02-13T23:03:34.813Z,96.22
2023-02-13T23:08:58.378Z,95.80
2023-02-13T23:14:21.782Z,95.52
2023-02-13T23:19:46.565Z,95.37
2023-02-13T23:25:09.183Z,95.39
2023-02-13T23:30:33.233Z,95.60
2023-02-13T23:35:55.412Z,95.76
2023-02-13T23:41:20.719Z,96.15
2023-02-13T23:46:42.983Z,96.56
2023-02-13T23:52:06.189Z,96.95
2023-02-13T23:57:29.209Z,97.38
